sensor_id;sensor_type;location;lat;lon;timestamp;P1;durP1;ratioP1;P2;durP2;ratioP2
68384;SDS011;55336;43.062;25.626;2024-01-10T00:01:59;17.15;;;12.82;;
68384;SDS011;55336;43.062;25.626;2024-01-10T00:04:25;23.00;;;13.95;;
68384;SDS011;55336;43.062;25.626;2024-01-10T00:06:51;19.50;;;13.38;;
68384;SDS011;55336;43.062;25.626;2024-01-10T00:09:16;21.00;;;13.60;;
68384;SDS011;55336;43.062;25.626;2024-01-10T00:11:42;17.90;;;13.15;;
68384;SDS011;55336;43.062;25.626;2024-01-10T00:14:08;21.92;;;13.45;;
68384;SDS011;55336;43.062;25.626;2024-01-10T00:16:34;18.77;;;13.50;;
68384;SDS011;55336;43.062;25.626;2024-01-10T00:19:00;22.10;;;13.63;;
68384;SDS011;55336;43.062;25.626;2024-01-10T00:21:26;22.00;;;14.95;;
68384;SDS011;55336;43.062;25.626;2024-01-10T00:23:52;23.55;;;15.48;;
68384;SDS011;55336;43.062;25.626;2024-01-10T00:26:18;30.75;;;18.52;;
68384;SDS011;55336;43.062;25.626;2024-01-10T00:28:44;23.60;;;16.20;;
68384;SDS011;55336;43.062;25.626;2024-01-10T00:31:11;40.03;;;23.88;;
68384;SDS011;55336;43.062;25.626;2024-01-10T00:33:38;39.38;;;25.08;;
68384;SDS011;55336;43.062;25.626;2024-01-10T00:36:04;36.45;;;24.48;;
68384;SDS011;55336;43.062;25.626;2024-01-10T00:38:31;43.00;;;27.23;;
68384;SDS011;55336;43.062;25.626;2024-01-10T00:40:57;36.35;;;24.42;;
68384;SDS011;55336;43.062;25.626;2024-01-10T00:43:22;31.60;;;20.85;;
68384;SDS011;55336;43.062;25.626;2024-01-10T00:45:48;25.73;;;17.48;;
68384;SDS011;55336;43.062;25.626;2024-01-10T00:48:14;21.88;;;17.10;;
68384;SDS011;55336;43.062;25.626;2024-01-10T00:50:42;26.30;;;16.73;;
68384;SDS011;55336;43.062;25.626;2024-01-10T00:53:09;25.25;;;17.77;;
68384;SDS011;55336;43.062;25.626;2024-01-10T00:55:35;25.05;;;16.67;;
68384;SDS011;55336;43.062;25.626;2024-01-10T00:58:01;27.63;;;17.48;;
68384;SDS011;55336;43.062;25.626;2024-01-10T01:00:27;23.75;;;16.70;;
68384;SDS011;55336;43.062;25.626;2024-01-10T01:02:53;27.02;;;18.23;;
68384;SDS011;55336;43.062;25.626;2024-01-10T01:05:19;25.83;;;16.70;;
68384;SDS011;55336;43.062;25.626;2024-01-10T01:07:44;23.10;;;16.73;;
68384;SDS011;55336;43.062;25.626;2024-01-10T01:10:10;27.15;;;17.48;;
68384;SDS011;55336;43.062;25.626;2024-01-10T01:12:36;26.92;;;16.92;;
68384;SDS011;55336;43.062;25.626;2024-01-10T01:15:03;25.25;;;17.55;;
68384;SDS011;55336;43.062;25.626;2024-01-10T01:17:29;24.20;;;17.25;;
68384;SDS011;55336;43.062;25.626;2024-01-10T01:19:54;24.75;;;15.90;;
68384;SDS011;55336;43.062;25.626;2024-01-10T01:22:20;24.63;;;17.92;;
68384;SDS011;55336;43.062;25.626;2024-01-10T01:24:46;22.55;;;16.50;;
68384;SDS011;55336;43.062;25.626;2024-01-10T01:27:12;30.55;;;18.88;;
68384;SDS011;55336;43.062;25.626;2024-01-10T01:29:38;24.38;;;15.93;;
68384;SDS011;55336;43.062;25.626;2024-01-10T01:32:04;21.55;;;13.80;;
68384;SDS011;55336;43.062;25.626;2024-01-10T01:34:30;26.58;;;17.27;;
68384;SDS011;55336;43.062;25.626;2024-01-10T01:36:56;23.50;;;16.33;;
68384;SDS011;55336;43.062;25.626;2024-01-10T01:39:22;25.92;;;16.00;;
68384;SDS011;55336;43.062;25.626;2024-01-10T01:41:47;25.10;;;16.17;;
68384;SDS011;55336;43.062;25.626;2024-01-10T01:44:13;28.08;;;17.80;;
68384;SDS011;55336;43.062;25.626;2024-01-10T01:46:39;25.48;;;16.38;;
68384;SDS011;55336;43.062;25.626;2024-01-10T01:49:08;25.98;;;16.65;;
68384;SDS011;55336;43.062;25.626;2024-01-10T01:51:35;18.15;;;13.52;;
68384;SDS011;55336;43.062;25.626;2024-01-10T01:54:03;23.38;;;16.63;;
68384;SDS011;55336;43.062;25.626;2024-01-10T01:56:31;21.63;;;15.27;;
68384;SDS011;55336;43.062;25.626;2024-01-10T01:58:57;21.70;;;13.73;;
68384;SDS011;55336;43.062;25.626;2024-01-10T02:01:23;20.85;;;12.93;;
68384;SDS011;55336;43.062;25.626;2024-01-10T02:03:49;19.15;;;12.20;;
68384;SDS011;55336;43.062;25.626;2024-01-10T02:06:15;23.48;;;14.70;;
68384;SDS011;55336;43.062;25.626;2024-01-10T02:08:40;22.63;;;14.65;;
68384;SDS011;55336;43.062;25.626;2024-01-10T02:11:06;21.67;;;15.55;;
68384;SDS011;55336;43.062;25.626;2024-01-10T02:13:32;22.10;;;14.48;;
68384;SDS011;55336;43.062;25.626;2024-01-10T02:15:59;23.05;;;15.57;;
68384;SDS011;55336;43.062;25.626;2024-01-10T02:18:25;29.00;;;18.10;;
68384;SDS011;55336;43.062;25.626;2024-01-10T02:20:50;24.48;;;14.73;;
68384;SDS011;55336;43.062;25.626;2024-01-10T02:23:17;24.08;;;15.85;;
68384;SDS011;55336;43.062;25.626;2024-01-10T02:25:43;19.80;;;13.02;;
68384;SDS011;55336;43.062;25.626;2024-01-10T02:28:09;20.17;;;13.18;;
68384;SDS011;55336;43.062;25.626;2024-01-10T02:30:36;21.55;;;14.48;;
68384;SDS011;55336;43.062;25.626;2024-01-10T02:33:02;27.98;;;16.40;;
68384;SDS011;55336;43.062;25.626;2024-01-10T02:35:28;24.65;;;14.43;;
68384;SDS011;55336;43.062;25.626;2024-01-10T02:37:57;21.88;;;14.80;;
68384;SDS011;55336;43.062;25.626;2024-01-10T02:40:24;24.50;;;17.33;;
68384;SDS011;55336;43.062;25.626;2024-01-10T02:42:49;28.77;;;21.15;;
68384;SDS011;55336;43.062;25.626;2024-01-10T02:45:16;26.25;;;15.30;;
68384;SDS011;55336;43.062;25.626;2024-01-10T02:47:42;32.78;;;20.98;;
68384;SDS011;55336;43.062;25.626;2024-01-10T02:50:08;24.17;;;16.20;;
68384;SDS011;55336;43.062;25.626;2024-01-10T02:52:34;24.15;;;17.00;;
68384;SDS011;55336;43.062;25.626;2024-01-10T02:55:00;27.33;;;19.60;;
68384;SDS011;55336;43.062;25.626;2024-01-10T02:57:26;26.05;;;16.20;;
68384;SDS011;55336;43.062;25.626;2024-01-10T02:59:52;31.02;;;19.83;;
68384;SDS011;55336;43.062;25.626;2024-01-10T03:02:18;21.63;;;14.40;;
68384;SDS011;55336;43.062;25.626;2024-01-10T03:04:43;26.08;;;17.88;;
68384;SDS011;55336;43.062;25.626;2024-01-10T03:07:09;33.63;;;19.40;;
68384;SDS011;55336;43.062;25.626;2024-01-10T03:09:35;29.67;;;19.58;;
68384;SDS011;55336;43.062;25.626;2024-01-10T03:12:01;26.27;;;15.98;;
68384;SDS011;55336;43.062;25.626;2024-01-10T03:14:27;26.48;;;18.83;;
68384;SDS011;55336;43.062;25.626;2024-01-10T03:16:53;31.58;;;19.88;;
68384;SDS011;55336;43.062;25.626;2024-01-10T03:19:19;22.73;;;14.25;;
68384;SDS011;55336;43.062;25.626;2024-01-10T03:21:45;20.58;;;14.45;;
68384;SDS011;55336;43.062;25.626;2024-01-10T03:24:11;21.67;;;13.77;;
68384;SDS011;55336;43.062;25.626;2024-01-10T03:26:37;28.92;;;19.90;;
68384;SDS011;55336;43.062;25.626;2024-01-10T03:29:02;36.83;;;19.33;;
68384;SDS011;55336;43.062;25.626;2024-01-10T03:31:30;26.77;;;18.13;;
68384;SDS011;55336;43.062;25.626;2024-01-10T03:33:56;27.90;;;19.20;;
68384;SDS011;55336;43.062;25.626;2024-01-10T03:36:23;29.45;;;19.60;;
68384;SDS011;55336;43.062;25.626;2024-01-10T03:38:50;32.15;;;17.60;;
68384;SDS011;55336;43.062;25.626;2024-01-10T03:41:16;25.10;;;16.23;;
68384;SDS011;55336;43.062;25.626;2024-01-10T03:43:43;26.25;;;18.10;;
68384;SDS011;55336;43.062;25.626;2024-01-10T03:46:09;32.67;;;23.17;;
68384;SDS011;55336;43.062;25.626;2024-01-10T03:48:35;32.80;;;20.95;;
68384;SDS011;55336;43.062;25.626;2024-01-10T03:51:02;30.10;;;18.45;;
68384;SDS011;55336;43.062;25.626;2024-01-10T03:53:28;38.80;;;25.67;;
68384;SDS011;55336;43.062;25.626;2024-01-10T03:55:55;39.00;;;26.40;;
68384;SDS011;55336;43.062;25.626;2024-01-10T03:58:21;38.17;;;21.10;;
68384;SDS011;55336;43.062;25.626;2024-01-10T04:00:46;38.30;;;21.15;;
68384;SDS011;55336;43.062;25.626;2024-01-10T04:03:12;44.28;;;27.95;;
68384;SDS011;55336;43.062;25.626;2024-01-10T04:05:38;39.67;;;24.27;;
68384;SDS011;55336;43.062;25.626;2024-01-10T04:08:04;47.72;;;28.70;;
68384;SDS011;55336;43.062;25.626;2024-01-10T04:10:30;45.90;;;31.00;;
68384;SDS011;55336;43.062;25.626;2024-01-10T04:12:56;31.83;;;19.92;;
68384;SDS011;55336;43.062;25.626;2024-01-10T04:15:22;29.75;;;17.77;;
68384;SDS011;55336;43.062;25.626;2024-01-10T04:17:48;34.95;;;22.52;;
68384;SDS011;55336;43.062;25.626;2024-01-10T04:20:13;24.83;;;17.42;;
68384;SDS011;55336;43.062;25.626;2024-01-10T04:22:39;24.00;;;16.80;;
68384;SDS011;55336;43.062;25.626;2024-01-10T04:25:06;29.92;;;21.45;;
68384;SDS011;55336;43.062;25.626;2024-01-10T04:27:32;40.78;;;26.15;;
68384;SDS011;55336;43.062;25.626;2024-01-10T04:29:58;43.13;;;26.80;;
68384;SDS011;55336;43.062;25.626;2024-01-10T04:32:24;35.90;;;21.70;;
68384;SDS011;55336;43.062;25.626;2024-01-10T04:34:50;27.98;;;19.67;;
68384;SDS011;55336;43.062;25.626;2024-01-10T04:37:16;36.65;;;24.67;;
68384;SDS011;55336;43.062;25.626;2024-01-10T04:39:43;35.45;;;22.75;;
68384;SDS011;55336;43.062;25.626;2024-01-10T04:42:10;26.42;;;17.33;;
68384;SDS011;55336;43.062;25.626;2024-01-10T04:44:36;32.47;;;22.95;;
68384;SDS011;55336;43.062;25.626;2024-01-10T04:47:02;21.35;;;15.07;;
68384;SDS011;55336;43.062;25.626;2024-01-10T04:49:29;32.55;;;21.00;;
68384;SDS011;55336;43.062;25.626;2024-01-10T04:51:54;23.33;;;16.95;;
68384;SDS011;55336;43.062;25.626;2024-01-10T04:54:20;27.95;;;16.88;;
68384;SDS011;55336;43.062;25.626;2024-01-10T04:56:46;27.42;;;16.75;;
68384;SDS011;55336;43.062;25.626;2024-01-10T04:59:12;30.77;;;20.73;;
68384;SDS011;55336;43.062;25.626;2024-01-10T05:01:38;24.65;;;15.10;;
68384;SDS011;55336;43.062;25.626;2024-01-10T05:04:04;26.23;;;19.02;;
68384;SDS011;55336;43.062;25.626;2024-01-10T05:06:30;32.60;;;18.98;;
68384;SDS011;55336;43.062;25.626;2024-01-10T05:08:58;31.63;;;22.58;;
68384;SDS011;55336;43.062;25.626;2024-01-10T05:11:25;28.00;;;18.45;;
68384;SDS011;55336;43.062;25.626;2024-01-10T05:13:51;33.67;;;24.02;;
68384;SDS011;55336;43.062;25.626;2024-01-10T05:16:17;29.38;;;21.25;;
68384;SDS011;55336;43.062;25.626;2024-01-10T05:18:43;31.17;;;18.88;;
68384;SDS011;55336;43.062;25.626;2024-01-10T05:21:09;23.73;;;17.40;;
68384;SDS011;55336;43.062;25.626;2024-01-10T05:23:35;28.20;;;18.80;;
68384;SDS011;55336;43.062;25.626;2024-01-10T05:26:04;32.45;;;21.25;;
68384;SDS011;55336;43.062;25.626;2024-01-10T05:28:30;28.67;;;16.73;;
68384;SDS011;55336;43.062;25.626;2024-01-10T05:30:56;28.23;;;15.20;;
68384;SDS011;55336;43.062;25.626;2024-01-10T05:33:23;31.73;;;20.25;;
68384;SDS011;55336;43.062;25.626;2024-01-10T05:35:48;21.13;;;14.48;;
68384;SDS011;55336;43.062;25.626;2024-01-10T05:38:14;21.65;;;15.90;;
68384;SDS011;55336;43.062;25.626;2024-01-10T05:40:40;22.73;;;17.38;;
68384;SDS011;55336;43.062;25.626;2024-01-10T05:43:06;22.30;;;13.48;;
68384;SDS011;55336;43.062;25.626;2024-01-10T05:45:32;24.88;;;17.48;;
68384;SDS011;55336;43.062;25.626;2024-01-10T05:47:58;25.55;;;18.50;;
68384;SDS011;55336;43.062;25.626;2024-01-10T05:50:24;19.52;;;13.52;;
68384;SDS011;55336;43.062;25.626;2024-01-10T05:52:50;28.15;;;18.35;;
68384;SDS011;55336;43.062;25.626;2024-01-10T05:55:16;24.48;;;15.18;;
68384;SDS011;55336;43.062;25.626;2024-01-10T05:57:42;22.83;;;15.55;;
68384;SDS011;55336;43.062;25.626;2024-01-10T06:00:08;24.95;;;17.02;;
68384;SDS011;55336;43.062;25.626;2024-01-10T06:02:38;25.52;;;18.88;;
68384;SDS011;55336;43.062;25.626;2024-01-10T06:05:08;17.75;;;13.63;;
68384;SDS011;55336;43.062;25.626;2024-01-10T06:07:38;24.67;;;16.92;;
68384;SDS011;55336;43.062;25.626;2024-01-10T06:10:05;26.50;;;16.42;;
68384;SDS011;55336;43.062;25.626;2024-01-10T06:12:31;22.67;;;16.17;;
68384;SDS011;55336;43.062;25.626;2024-01-10T06:14:57;30.33;;;20.88;;
68384;SDS011;55336;43.062;25.626;2024-01-10T06:17:23;29.52;;;21.27;;
68384;SDS011;55336;43.062;25.626;2024-01-10T06:19:49;25.77;;;19.08;;
68384;SDS011;55336;43.062;25.626;2024-01-10T06:22:15;25.95;;;18.58;;
68384;SDS011;55336;43.062;25.626;2024-01-10T06:24:42;25.02;;;18.70;;
68384;SDS011;55336;43.062;25.626;2024-01-10T06:27:08;23.92;;;14.60;;
68384;SDS011;55336;43.062;25.626;2024-01-10T06:29:35;28.08;;;19.05;;
68384;SDS011;55336;43.062;25.626;2024-01-10T06:32:02;25.10;;;17.67;;
68384;SDS011;55336;43.062;25.626;2024-01-10T06:34:31;26.30;;;15.68;;
68384;SDS011;55336;43.062;25.626;2024-01-10T06:36:57;29.15;;;21.58;;
68384;SDS011;55336;43.062;25.626;2024-01-10T06:39:23;32.70;;;21.85;;
68384;SDS011;55336;43.062;25.626;2024-01-10T06:41:49;26.88;;;17.67;;
68384;SDS011;55336;43.062;25.626;2024-01-10T06:44:15;32.65;;;24.13;;
68384;SDS011;55336;43.062;25.626;2024-01-10T06:46:44;31.35;;;23.92;;
68384;SDS011;55336;43.062;25.626;2024-01-10T06:49:11;36.80;;;24.02;;
68384;SDS011;55336;43.062;25.626;2024-01-10T06:51:36;34.50;;;23.80;;
68384;SDS011;55336;43.062;25.626;2024-01-10T06:54:03;57.05;;;31.25;;
68384;SDS011;55336;43.062;25.626;2024-01-10T06:56:30;81.03;;;31.13;;
68384;SDS011;55336;43.062;25.626;2024-01-10T06:58:57;106.07;;;47.67;;
68384;SDS011;55336;43.062;25.626;2024-01-10T07:01:27;87.82;;;44.33;;
68384;SDS011;55336;43.062;25.626;2024-01-10T07:03:53;52.55;;;30.20;;
68384;SDS011;55336;43.062;25.626;2024-01-10T07:06:20;64.95;;;35.08;;
68384;SDS011;55336;43.062;25.626;2024-01-10T07:08:47;62.90;;;30.23;;
68384;SDS011;55336;43.062;25.626;2024-01-10T07:11:14;48.20;;;24.63;;
68384;SDS011;55336;43.062;25.626;2024-01-10T07:13:41;55.15;;;31.05;;
68384;SDS011;55336;43.062;25.626;2024-01-10T07:16:07;46.92;;;29.00;;
68384;SDS011;55336;43.062;25.626;2024-01-10T07:18:33;47.92;;;29.40;;
68384;SDS011;55336;43.062;25.626;2024-01-10T07:20:59;52.22;;;31.10;;
68384;SDS011;55336;43.062;25.626;2024-01-10T07:23:25;46.60;;;30.80;;
68384;SDS011;55336;43.062;25.626;2024-01-10T07:25:51;38.85;;;24.48;;
68384;SDS011;55336;43.062;25.626;2024-01-10T07:28:17;37.80;;;23.15;;
68384;SDS011;55336;43.062;25.626;2024-01-10T07:30:44;40.30;;;24.25;;
68384;SDS011;55336;43.062;25.626;2024-01-10T07:33:10;35.00;;;23.60;;
68384;SDS011;55336;43.062;25.626;2024-01-10T07:35:37;33.22;;;22.40;;
68384;SDS011;55336;43.062;25.626;2024-01-10T07:38:06;37.65;;;22.65;;
68384;SDS011;55336;43.062;25.626;2024-01-10T07:40:35;36.20;;;22.52;;
68384;SDS011;55336;43.062;25.626;2024-01-10T07:43:01;34.30;;;23.75;;
68384;SDS011;55336;43.062;25.626;2024-01-10T07:45:28;32.67;;;20.67;;
68384;SDS011;55336;43.062;25.626;2024-01-10T07:47:54;35.17;;;22.88;;
68384;SDS011;55336;43.062;25.626;2024-01-10T07:50:20;25.98;;;16.20;;
68384;SDS011;55336;43.062;25.626;2024-01-10T07:52:46;27.50;;;17.08;;
68384;SDS011;55336;43.062;25.626;2024-01-10T07:55:12;31.40;;;17.80;;
68384;SDS011;55336;43.062;25.626;2024-01-10T07:57:38;24.85;;;15.68;;
68384;SDS011;55336;43.062;25.626;2024-01-10T08:00:04;24.88;;;15.73;;
68384;SDS011;55336;43.062;25.626;2024-01-10T08:02:33;27.15;;;16.92;;
68384;SDS011;55336;43.062;25.626;2024-01-10T08:05:00;25.35;;;16.45;;
68384;SDS011;55336;43.062;25.626;2024-01-10T08:07:33;27.38;;;16.20;;
68384;SDS011;55336;43.062;25.626;2024-01-10T08:09:59;27.65;;;16.10;;
68384;SDS011;55336;43.062;25.626;2024-01-10T08:12:25;25.85;;;16.08;;
68384;SDS011;55336;43.062;25.626;2024-01-10T08:14:51;24.00;;;14.75;;
68384;SDS011;55336;43.062;25.626;2024-01-10T08:17:17;24.80;;;15.45;;
68384;SDS011;55336;43.062;25.626;2024-01-10T08:19:43;30.02;;;16.63;;
68384;SDS011;55336;43.062;25.626;2024-01-10T08:22:08;30.70;;;17.30;;
68384;SDS011;55336;43.062;25.626;2024-01-10T08:24:34;28.65;;;17.35;;
68384;SDS011;55336;43.062;25.626;2024-01-10T08:27:00;35.08;;;18.70;;
68384;SDS011;55336;43.062;25.626;2024-01-10T08:29:26;50.08;;;21.75;;
68384;SDS011;55336;43.062;25.626;2024-01-10T08:31:56;22.67;;;14.98;;
68384;SDS011;55336;43.062;25.626;2024-01-10T08:34:25;26.25;;;15.07;;
68384;SDS011;55336;43.062;25.626;2024-01-10T08:36:52;27.67;;;15.77;;
68384;SDS011;55336;43.062;25.626;2024-01-10T08:39:18;20.30;;;12.85;;
68384;SDS011;55336;43.062;25.626;2024-01-10T08:41:44;21.00;;;13.13;;
68384;SDS011;55336;43.062;25.626;2024-01-10T08:44:10;15.60;;;11.27;;
68384;SDS011;55336;43.062;25.626;2024-01-10T08:46:36;23.63;;;14.60;;
68384;SDS011;55336;43.062;25.626;2024-01-10T08:49:02;16.38;;;11.82;;
68384;SDS011;55336;43.062;25.626;2024-01-10T08:51:29;17.02;;;12.65;;
68384;SDS011;55336;43.062;25.626;2024-01-10T08:53:55;29.02;;;16.17;;
68384;SDS011;55336;43.062;25.626;2024-01-10T08:56:22;21.15;;;13.10;;
68384;SDS011;55336;43.062;25.626;2024-01-10T08:58:48;17.48;;;11.30;;
68384;SDS011;55336;43.062;25.626;2024-01-10T09:01:15;27.63;;;13.73;;
68384;SDS011;55336;43.062;25.626;2024-01-10T09:03:41;14.48;;;10.10;;
68384;SDS011;55336;43.062;25.626;2024-01-10T09:06:07;11.70;;;9.93;;
68384;SDS011;55336;43.062;25.626;2024-01-10T09:08:36;13.05;;;8.70;;
68384;SDS011;55336;43.062;25.626;2024-01-10T09:11:02;11.63;;;8.43;;
68384;SDS011;55336;43.062;25.626;2024-01-10T09:13:28;12.13;;;9.00;;
68384;SDS011;55336;43.062;25.626;2024-01-10T09:15:54;13.23;;;9.45;;
68384;SDS011;55336;43.062;25.626;2024-01-10T09:18:24;15.50;;;10.18;;
68384;SDS011;55336;43.062;25.626;2024-01-10T09:20:55;10.77;;;9.07;;
68384;SDS011;55336;43.062;25.626;2024-01-10T09:23:21;13.38;;;9.60;;
68384;SDS011;55336;43.062;25.626;2024-01-10T09:25:47;11.35;;;9.20;;
68384;SDS011;55336;43.062;25.626;2024-01-10T09:28:13;13.38;;;9.23;;
68384;SDS011;55336;43.062;25.626;2024-01-10T09:30:39;12.18;;;8.15;;
68384;SDS011;55336;43.062;25.626;2024-01-10T09:33:05;13.23;;;8.15;;
68384;SDS011;55336;43.062;25.626;2024-01-10T09:35:31;13.63;;;9.63;;
68384;SDS011;55336;43.062;25.626;2024-01-10T09:37:57;13.05;;;7.80;;
68384;SDS011;55336;43.062;25.626;2024-01-10T09:40:28;10.02;;;7.53;;
68384;SDS011;55336;43.062;25.626;2024-01-10T09:43:04;9.32;;;7.78;;
68384;SDS011;55336;43.062;25.626;2024-01-10T09:45:56;9.90;;;8.00;;
68384;SDS011;55336;43.062;25.626;2024-01-10T09:49:13;13.20;;;8.30;;
68384;SDS011;55336;43.062;25.626;2024-01-10T09:51:58;11.07;;;7.70;;
68384;SDS011;55336;43.062;25.626;2024-01-10T09:54:36;11.40;;;7.65;;
68384;SDS011;55336;43.062;25.626;2024-01-10T09:57:06;10.88;;;8.07;;
68384;SDS011;55336;43.062;25.626;2024-01-10T09:59:38;10.15;;;7.30;;
68384;SDS011;55336;43.062;25.626;2024-01-10T10:02:25;10.05;;;7.90;;
68384;SDS011;55336;43.062;25.626;2024-01-10T10:14:49;9.52;;;7.10;;
68384;SDS011;55336;43.062;25.626;2024-01-10T10:17:18;9.55;;;6.90;;
68384;SDS011;55336;43.062;25.626;2024-01-10T10:19:46;11.85;;;6.75;;
68384;SDS011;55336;43.062;25.626;2024-01-10T10:22:15;7.40;;;6.57;;
68384;SDS011;55336;43.062;25.626;2024-01-10T10:24:41;9.43;;;6.90;;
68384;SDS011;55336;43.062;25.626;2024-01-10T10:27:13;9.02;;;6.95;;
68384;SDS011;55336;43.062;25.626;2024-01-10T10:29:40;9.07;;;7.45;;
68384;SDS011;55336;43.062;25.626;2024-01-10T10:32:05;10.75;;;6.85;;
68384;SDS011;55336;43.062;25.626;2024-01-10T10:34:36;9.43;;;7.53;;
68384;SDS011;55336;43.062;25.626;2024-01-10T10:37:03;7.60;;;5.82;;
68384;SDS011;55336;43.062;25.626;2024-01-10T10:39:29;7.72;;;6.45;;
68384;SDS011;55336;43.062;25.626;2024-01-10T10:41:55;8.32;;;6.70;;
68384;SDS011;55336;43.062;25.626;2024-01-10T10:44:24;8.98;;;6.78;;
68384;SDS011;55336;43.062;25.626;2024-01-10T10:46:52;9.70;;;6.38;;
68384;SDS011;55336;43.062;25.626;2024-01-10T10:49:21;7.28;;;5.93;;
68384;SDS011;55336;43.062;25.626;2024-01-10T10:51:55;12.35;;;6.90;;
68384;SDS011;55336;43.062;25.626;2024-01-10T10:54:25;8.88;;;7.03;;
68384;SDS011;55336;43.062;25.626;2024-01-10T10:56:57;8.35;;;6.40;;
68384;SDS011;55336;43.062;25.626;2024-01-10T10:59:27;8.55;;;6.65;;
68384;SDS011;55336;43.062;25.626;2024-01-10T11:01:54;9.07;;;7.20;;
68384;SDS011;55336;43.062;25.626;2024-01-10T11:04:21;11.65;;;7.45;;
68384;SDS011;55336;43.062;25.626;2024-01-10T11:06:47;9.73;;;7.28;;
68384;SDS011;55336;43.062;25.626;2024-01-10T11:09:14;13.07;;;8.90;;
68384;SDS011;55336;43.062;25.626;2024-01-10T11:14:39;13.27;;;9.77;;
68384;SDS011;55336;43.062;25.626;2024-01-10T11:20:44;10.15;;;8.10;;
68384;SDS011;55336;43.062;25.626;2024-01-10T11:23:53;12.70;;;9.77;;
68384;SDS011;55336;43.062;25.626;2024-01-10T11:26:21;16.30;;;10.32;;
68384;SDS011;55336;43.062;25.626;2024-01-10T11:28:47;14.48;;;9.65;;
68384;SDS011;55336;43.062;25.626;2024-01-10T11:31:14;12.15;;;9.23;;
68384;SDS011;55336;43.062;25.626;2024-01-10T11:33:44;12.20;;;8.93;;
68384;SDS011;55336;43.062;25.626;2024-01-10T11:36:14;9.85;;;8.10;;
68384;SDS011;55336;43.062;25.626;2024-01-10T11:41:19;10.32;;;8.05;;
68384;SDS011;55336;43.062;25.626;2024-01-10T11:46:49;11.75;;;8.55;;
68384;SDS011;55336;43.062;25.626;2024-01-10T11:49:18;13.63;;;8.80;;
68384;SDS011;55336;43.062;25.626;2024-01-10T11:51:54;13.75;;;9.93;;
68384;SDS011;55336;43.062;25.626;2024-01-10T11:54:37;10.60;;;9.10;;
68384;SDS011;55336;43.062;25.626;2024-01-10T11:57:10;11.27;;;8.38;;
68384;SDS011;55336;43.062;25.626;2024-01-10T11:59:43;9.27;;;6.90;;
68384;SDS011;55336;43.062;25.626;2024-01-10T12:02:15;10.55;;;7.75;;
68384;SDS011;55336;43.062;25.626;2024-01-10T12:04:42;11.32;;;8.20;;
68384;SDS011;55336;43.062;25.626;2024-01-10T12:07:08;11.05;;;6.88;;
68384;SDS011;55336;43.062;25.626;2024-01-10T12:09:35;9.40;;;6.88;;
68384;SDS011;55336;43.062;25.626;2024-01-10T12:12:03;9.23;;;7.20;;
68384;SDS011;55336;43.062;25.626;2024-01-10T12:14:30;13.77;;;8.27;;
68384;SDS011;55336;43.062;25.626;2024-01-10T12:16:56;10.60;;;7.25;;
68384;SDS011;55336;43.062;25.626;2024-01-10T12:19:22;8.73;;;7.22;;
68384;SDS011;55336;43.062;25.626;2024-01-10T12:21:48;12.07;;;7.63;;
68384;SDS011;55336;43.062;25.626;2024-01-10T12:24:14;10.73;;;7.65;;
68384;SDS011;55336;43.062;25.626;2024-01-10T12:26:45;12.40;;;8.23;;
68384;SDS011;55336;43.062;25.626;2024-01-10T12:29:18;11.23;;;7.35;;
68384;SDS011;55336;43.062;25.626;2024-01-10T12:31:47;8.98;;;7.18;;
68384;SDS011;55336;43.062;25.626;2024-01-10T12:34:13;11.45;;;7.20;;
68384;SDS011;55336;43.062;25.626;2024-01-10T12:36:40;11.38;;;8.00;;
68384;SDS011;55336;43.062;25.626;2024-01-10T12:39:11;9.98;;;7.65;;
68384;SDS011;55336;43.062;25.626;2024-01-10T12:41:37;12.13;;;8.30;;
68384;SDS011;55336;43.062;25.626;2024-01-10T12:44:06;10.68;;;8.15;;
68384;SDS011;55336;43.062;25.626;2024-01-10T12:46:35;13.13;;;8.45;;
68384;SDS011;55336;43.062;25.626;2024-01-10T12:49:17;10.43;;;8.32;;
68384;SDS011;55336;43.062;25.626;2024-01-10T12:51:43;9.43;;;7.57;;
68384;SDS011;55336;43.062;25.626;2024-01-10T12:54:09;10.88;;;8.05;;
68384;SDS011;55336;43.062;25.626;2024-01-10T12:56:35;11.05;;;8.40;;
68384;SDS011;55336;43.062;25.626;2024-01-10T12:59:01;11.52;;;8.38;;
68384;SDS011;55336;43.062;25.626;2024-01-10T13:01:27;12.02;;;7.82;;
68384;SDS011;55336;43.062;25.626;2024-01-10T13:03:53;11.05;;;7.95;;
68384;SDS011;55336;43.062;25.626;2024-01-10T13:06:20;8.63;;;7.55;;
68384;SDS011;55336;43.062;25.626;2024-01-10T13:08:47;10.63;;;7.88;;
68384;SDS011;55336;43.062;25.626;2024-01-10T13:11:14;13.32;;;7.90;;
68384;SDS011;55336;43.062;25.626;2024-01-10T13:13:41;10.38;;;7.95;;
68384;SDS011;55336;43.062;25.626;2024-01-10T13:16:08;9.73;;;7.28;;
68384;SDS011;55336;43.062;25.626;2024-01-10T13:18:38;11.18;;;7.82;;
68384;SDS011;55336;43.062;25.626;2024-01-10T13:21:04;13.35;;;8.55;;
68384;SDS011;55336;43.062;25.626;2024-01-10T13:23:30;12.18;;;9.10;;
68384;SDS011;55336;43.062;25.626;2024-01-10T13:25:56;12.35;;;9.15;;
68384;SDS011;55336;43.062;25.626;2024-01-10T13:28:22;12.25;;;8.77;;
68384;SDS011;55336;43.062;25.626;2024-01-10T13:30:47;14.25;;;9.10;;
68384;SDS011;55336;43.062;25.626;2024-01-10T13:33:16;10.13;;;7.75;;
68384;SDS011;55336;43.062;25.626;2024-01-10T13:35:42;13.88;;;8.25;;
68384;SDS011;55336;43.062;25.626;2024-01-10T13:38:08;12.63;;;8.70;;
68384;SDS011;55336;43.062;25.626;2024-01-10T13:40:35;12.18;;;9.15;;
68384;SDS011;55336;43.062;25.626;2024-01-10T13:43:01;14.20;;;9.30;;
68384;SDS011;55336;43.062;25.626;2024-01-10T13:45:27;12.95;;;9.50;;
68384;SDS011;55336;43.062;25.626;2024-01-10T13:47:54;11.05;;;7.97;;
68384;SDS011;55336;43.062;25.626;2024-01-10T13:50:20;13.13;;;8.93;;
68384;SDS011;55336;43.062;25.626;2024-01-10T13:52:46;10.00;;;7.57;;
68384;SDS011;55336;43.062;25.626;2024-01-10T13:55:12;9.80;;;7.40;;
68384;SDS011;55336;43.062;25.626;2024-01-10T13:57:38;10.82;;;8.18;;
68384;SDS011;55336;43.062;25.626;2024-01-10T14:00:05;11.23;;;7.57;;
68384;SDS011;55336;43.062;25.626;2024-01-10T14:02:39;10.63;;;7.63;;
68384;SDS011;55336;43.062;25.626;2024-01-10T14:05:06;8.73;;;7.82;;
68384;SDS011;55336;43.062;25.626;2024-01-10T14:07:34;10.30;;;7.93;;
68384;SDS011;55336;43.062;25.626;2024-01-10T14:10:00;10.02;;;7.70;;
68384;SDS011;55336;43.062;25.626;2024-01-10T14:12:29;9.23;;;7.65;;
68384;SDS011;55336;43.062;25.626;2024-01-10T14:14:55;12.25;;;8.00;;
68384;SDS011;55336;43.062;25.626;2024-01-10T14:17:21;11.68;;;7.60;;
68384;SDS011;55336;43.062;25.626;2024-01-10T14:19:47;13.48;;;8.45;;
68384;SDS011;55336;43.062;25.626;2024-01-10T14:22:15;12.68;;;8.70;;
68384;SDS011;55336;43.062;25.626;2024-01-10T14:24:45;15.38;;;9.48;;
68384;SDS011;55336;43.062;25.626;2024-01-10T14:27:11;14.32;;;9.07;;
68384;SDS011;55336;43.062;25.626;2024-01-10T14:29:37;16.65;;;9.40;;
68384;SDS011;55336;43.062;25.626;2024-01-10T14:32:03;13.18;;;9.35;;
68384;SDS011;55336;43.062;25.626;2024-01-10T14:34:29;13.07;;;8.55;;
68384;SDS011;55336;43.062;25.626;2024-01-10T14:36:56;10.80;;;8.10;;